<?xml version="1.0" encoding="utf-8"?>
<gpx xmlns:xsi="http://www.w3.org/2001/XMLSchema-instance" xmlns:xsd="http://www.w3.org/2001/XMLSchema" version="1.1" creator="Shapelink.com" xmlns="http://www.topografix.com/GPX/1/1" xmlns:gpxtpx="http://www.garmin.com/xmlschemas/TrackPointExtension/v1">
  <metadata>
    <name>Basketball 2.51 km, 2014-06-17</name>
    <desc></desc>
    <author><name>Carl Grundberg</name></author> 
    <time>2014-06-17T12:39:26Z</time>
  </metadata>
  <trk>
    <name>Basketball 2.51 km, 2014-06-17</name>
    <trkseg>
      <trkpt lat="56.3489023" lon="13.6464217">
        <ele>122.225</ele>
        <time>2014-06-17T12:39:26Z</time>
      </trkpt>
      <trkpt lat="56.3489697" lon="13.6464191">
        <ele>121.744</ele>
        <time>2014-06-17T12:39:29Z</time>
      </trkpt>
      <trkpt lat="56.3491333" lon="13.6462215">
        <ele>121.264</ele>
        <time>2014-06-17T12:39:36Z</time>
      </trkpt>
      <trkpt lat="56.3492329" lon="13.6460585">
        <ele>120.783</ele>
        <time>2014-06-17T12:39:41Z</time>
      </trkpt>
      <trkpt lat="56.3492064" lon="13.6458271">
        <ele>120.783</ele>
        <time>2014-06-17T12:39:46Z</time>
      </trkpt>
      <trkpt lat="56.3491287" lon="13.6457452">
        <ele>121.264</ele>
        <time>2014-06-17T12:39:49Z</time>
      </trkpt>
      <trkpt lat="56.3489744" lon="13.6456415">
        <ele>121.744</ele>
        <time>2014-06-17T12:39:55Z</time>
      </trkpt>
      <trkpt lat="56.3488527" lon="13.6455388">
        <ele>121.744</ele>
        <time>2014-06-17T12:40:00Z</time>
      </trkpt>
      <trkpt lat="56.3487097" lon="13.6454515">
        <ele>121.744</ele>
        <time>2014-06-17T12:40:05Z</time>
      </trkpt>
      <trkpt lat="56.3484967" lon="13.645292">
        <ele>122.705</ele>
        <time>2014-06-17T12:40:12Z</time>
      </trkpt>
      <trkpt lat="56.3483143" lon="13.6452135">
        <ele>124.628</ele>
        <time>2014-06-17T12:40:18Z</time>
      </trkpt>
      <trkpt lat="56.3481179" lon="13.6451059">
        <ele>125.589</ele>
        <time>2014-06-17T12:40:25Z</time>
      </trkpt>
      <trkpt lat="56.3480042" lon="13.6450604">
        <ele>126.07</ele>
        <time>2014-06-17T12:40:29Z</time>
      </trkpt>
      <trkpt lat="56.3479072" lon="13.645009">
        <ele>126.07</ele>
        <time>2014-06-17T12:40:33Z</time>
      </trkpt>
      <trkpt lat="56.3477581" lon="13.6449887">
        <ele>126.07</ele>
        <time>2014-06-17T12:40:38Z</time>
      </trkpt>
      <trkpt lat="56.3476149" lon="13.6449661">
        <ele>126.07</ele>
        <time>2014-06-17T12:40:43Z</time>
      </trkpt>
      <trkpt lat="56.3474934" lon="13.6449184">
        <ele>126.07</ele>
        <time>2014-06-17T12:40:47Z</time>
      </trkpt>
      <trkpt lat="56.3473445" lon="13.6448309">
        <ele>126.07</ele>
        <time>2014-06-17T12:40:52Z</time>
      </trkpt>
      <trkpt lat="56.3471509" lon="13.6446677">
        <ele>127.993</ele>
        <time>2014-06-17T12:40:59Z</time>
      </trkpt>
      <trkpt lat="56.3470379" lon="13.6445392">
        <ele>128.473</ele>
        <time>2014-06-17T12:41:04Z</time>
      </trkpt>
      <trkpt lat="56.3469209" lon="13.6444127">
        <ele>129.435</ele>
        <time>2014-06-17T12:41:09Z</time>
      </trkpt>
      <trkpt lat="56.3468037" lon="13.6442803">
        <ele>129.915</ele>
        <time>2014-06-17T12:41:14Z</time>
      </trkpt>
      <trkpt lat="56.3466205" lon="13.6440942">
        <ele>130.396</ele>
        <time>2014-06-17T12:41:21Z</time>
      </trkpt>
      <trkpt lat="56.3464522" lon="13.6438424">
        <ele>132.319</ele>
        <time>2014-06-17T12:41:28Z</time>
      </trkpt>
      <trkpt lat="56.3463463" lon="13.6436855">
        <ele>132.799</ele>
        <time>2014-06-17T12:41:33Z</time>
      </trkpt>
      <trkpt lat="56.3462258" lon="13.6433877">
        <ele>133.28</ele>
        <time>2014-06-17T12:41:40Z</time>
      </trkpt>
      <trkpt lat="56.3461293" lon="13.6431277">
        <ele>132.799</ele>
        <time>2014-06-17T12:41:46Z</time>
      </trkpt>
      <trkpt lat="56.346047" lon="13.6429157">
        <ele>132.799</ele>
        <time>2014-06-17T12:41:51Z</time>
      </trkpt>
      <trkpt lat="56.3459373" lon="13.6425697">
        <ele>130.877</ele>
        <time>2014-06-17T12:41:59Z</time>
      </trkpt>
      <trkpt lat="56.3458469" lon="13.6422914">
        <ele>129.435</ele>
        <time>2014-06-17T12:42:05Z</time>
      </trkpt>
      <trkpt lat="56.3457673" lon="13.6420739">
        <ele>129.915</ele>
        <time>2014-06-17T12:42:10Z</time>
      </trkpt>
      <trkpt lat="56.3456758" lon="13.641785">
        <ele>129.915</ele>
        <time>2014-06-17T12:42:16Z</time>
      </trkpt>
      <trkpt lat="56.3456281" lon="13.6414426">
        <ele>129.435</ele>
        <time>2014-06-17T12:42:22Z</time>
      </trkpt>
      <trkpt lat="56.3455741" lon="13.6410076">
        <ele>128.954</ele>
        <time>2014-06-17T12:42:30Z</time>
      </trkpt>
      <trkpt lat="56.3455509" lon="13.6406568">
        <ele>127.512</ele>
        <time>2014-06-17T12:42:37Z</time>
      </trkpt>
      <trkpt lat="56.3454905" lon="13.6403786">
        <ele>126.551</ele>
        <time>2014-06-17T12:42:43Z</time>
      </trkpt>
      <trkpt lat="56.3453628" lon="13.6401016">
        <ele>126.07</ele>
        <time>2014-06-17T12:42:50Z</time>
      </trkpt>
      <trkpt lat="56.3452355" lon="13.6398267">
        <ele>126.07</ele>
        <time>2014-06-17T12:42:57Z</time>
      </trkpt>
      <trkpt lat="56.3451171" lon="13.6395601">
        <ele>125.589</ele>
        <time>2014-06-17T12:43:04Z</time>
      </trkpt>
      <trkpt lat="56.3450083" lon="13.6392788">
        <ele>125.109</ele>
        <time>2014-06-17T12:43:11Z</time>
      </trkpt>
      <trkpt lat="56.344922" lon="13.639038">
        <ele>124.628</ele>
        <time>2014-06-17T12:43:17Z</time>
      </trkpt>
      <trkpt lat="56.3448292" lon="13.6389146">
        <ele>123.186</ele>
        <time>2014-06-17T12:43:21Z</time>
      </trkpt>
      <trkpt lat="56.3447054" lon="13.6388598">
        <ele>122.705</ele>
        <time>2014-06-17T12:43:26Z</time>
      </trkpt>
      <trkpt lat="56.3445687" lon="13.6387918">
        <ele>121.744</ele>
        <time>2014-06-17T12:43:31Z</time>
      </trkpt>
      <trkpt lat="56.3445386" lon="13.6386475">
        <ele>120.783</ele>
        <time>2014-06-17T12:43:36Z</time>
      </trkpt>
      <trkpt lat="56.3444918" lon="13.6385205">
        <ele>120.783</ele>
        <time>2014-06-17T12:43:40Z</time>
      </trkpt>
      <trkpt lat="56.3444631" lon="13.6384064">
        <ele>120.302</ele>
        <time>2014-06-17T12:43:43Z</time>
      </trkpt>
      <trkpt lat="56.344454" lon="13.6382716">
        <ele>120.783</ele>
        <time>2014-06-17T12:43:48Z</time>
      </trkpt>
      <trkpt lat="56.3444474" lon="13.6381608">
        <ele>120.783</ele>
        <time>2014-06-17T12:43:53Z</time>
      </trkpt>
      <trkpt lat="56.3444646" lon="13.6381056">
        <ele>121.744</ele>
        <time>2014-06-17T12:43:59Z</time>
      </trkpt>
      <trkpt lat="56.3444353" lon="13.6380817">
        <ele>121.264</ele>
        <time>2014-06-17T12:44:05Z</time>
      </trkpt>
      <trkpt lat="56.344336" lon="13.6381023">
        <ele>119.821</ele>
        <time>2014-06-17T12:44:10Z</time>
      </trkpt>
      <trkpt lat="56.3442773" lon="13.6379684">
        <ele>119.341</ele>
        <time>2014-06-17T12:44:14Z</time>
      </trkpt>
      <trkpt lat="56.3441986" lon="13.6379443">
        <ele>119.821</ele>
        <time>2014-06-17T12:44:17Z</time>
      </trkpt>
      <trkpt lat="56.3439879" lon="13.6379398">
        <ele>120.302</ele>
        <time>2014-06-17T12:44:24Z</time>
      </trkpt>
      <trkpt lat="56.3439051" lon="13.6377797">
        <ele>121.744</ele>
        <time>2014-06-17T12:44:28Z</time>
      </trkpt>
      <trkpt lat="56.343863" lon="13.6374709">
        <ele>122.705</ele>
        <time>2014-06-17T12:44:34Z</time>
      </trkpt>
      <trkpt lat="56.3438103" lon="13.6372195">
        <ele>124.628</ele>
        <time>2014-06-17T12:44:39Z</time>
      </trkpt>
      <trkpt lat="56.343734" lon="13.6369115">
        <ele>126.07</ele>
        <time>2014-06-17T12:44:45Z</time>
      </trkpt>
      <trkpt lat="56.3436547" lon="13.6366159">
        <ele>126.07</ele>
        <time>2014-06-17T12:44:51Z</time>
      </trkpt>
      <trkpt lat="56.3435983" lon="13.6363816">
        <ele>125.589</ele>
        <time>2014-06-17T12:44:56Z</time>
      </trkpt>
      <trkpt lat="56.3435881" lon="13.6363506">
        <ele>125.589</ele>
        <time>2014-06-17T12:44:57Z</time>
      </trkpt>
      <trkpt lat="56.3435767" lon="13.6363094">
        <ele>125.589</ele>
        <time>2014-06-17T12:44:59Z</time>
      </trkpt>
      <trkpt lat="56.3435796" lon="13.6363012">
        <ele>125.589</ele>
        <time>2014-06-17T12:45:01Z</time>
      </trkpt>
      <trkpt lat="56.3435889" lon="13.6363911">
        <ele>124.147</ele>
        <time>2014-06-17T12:45:07Z</time>
      </trkpt>
      <trkpt lat="56.3435658" lon="13.6363705">
        <ele>124.147</ele>
        <time>2014-06-17T12:45:11Z</time>
      </trkpt>
      <trkpt lat="56.3435379" lon="13.6363444">
        <ele>124.628</ele>
        <time>2014-06-17T12:45:17Z</time>
      </trkpt>
      <trkpt lat="56.3434954" lon="13.6363462">
        <ele>123.667</ele>
        <time>2014-06-17T12:45:23Z</time>
      </trkpt>
      <trkpt lat="56.3434783" lon="13.636363">
        <ele>124.628</ele>
        <time>2014-06-17T12:45:30Z</time>
      </trkpt>
      <trkpt lat="56.3434534" lon="13.636393">
        <ele>124.628</ele>
        <time>2014-06-17T12:45:35Z</time>
      </trkpt>
      <trkpt lat="56.3434543" lon="13.6364337">
        <ele>124.147</ele>
        <time>2014-06-17T12:45:38Z</time>
      </trkpt>
      <trkpt lat="56.3434902" lon="13.6364894">
        <ele>122.705</ele>
        <time>2014-06-17T12:45:45Z</time>
      </trkpt>
      <trkpt lat="56.3435077" lon="13.6364868">
        <ele>122.225</ele>
        <time>2014-06-17T12:45:51Z</time>
      </trkpt>
      <trkpt lat="56.3434887" lon="13.636512">
        <ele>122.225</ele>
        <time>2014-06-17T12:46:08Z</time>
      </trkpt>
      <trkpt lat="56.3434794" lon="13.6365371">
        <ele>123.186</ele>
        <time>2014-06-17T12:46:29Z</time>
      </trkpt>
      <trkpt lat="56.3433983" lon="13.6366705">
        <ele>128.954</ele>
        <time>2014-06-17T12:47:44Z</time>
      </trkpt>
      <trkpt lat="56.3433916" lon="13.6366857">
        <ele>129.435</ele>
        <time>2014-06-17T12:48:04Z</time>
      </trkpt>
      <trkpt lat="56.3433768" lon="13.6366992">
        <ele>130.877</ele>
        <time>2014-06-17T12:48:12Z</time>
      </trkpt>
      <trkpt lat="56.3433871" lon="13.6366855">
        <ele>131.838</ele>
        <time>2014-06-17T12:48:24Z</time>
      </trkpt>
      <trkpt lat="56.3433947" lon="13.6366912">
        <ele>132.799</ele>
        <time>2014-06-17T12:48:36Z</time>
      </trkpt>
      <trkpt lat="56.3433643" lon="13.6367266">
        <ele>137.125</ele>
        <time>2014-06-17T12:49:13Z</time>
      </trkpt>
      <trkpt lat="56.3433831" lon="13.6366992">
        <ele>135.683</ele>
        <time>2014-06-17T12:49:28Z</time>
      </trkpt>
      <trkpt lat="56.3433934" lon="13.6367364">
        <ele>132.319</ele>
        <time>2014-06-17T12:49:50Z</time>
      </trkpt>
      <trkpt lat="56.3434119" lon="13.6367764">
        <ele>130.396</ele>
        <time>2014-06-17T12:49:55Z</time>
      </trkpt>
      <trkpt lat="56.3434206" lon="13.6367566">
        <ele>130.877</ele>
        <time>2014-06-17T12:49:59Z</time>
      </trkpt>
      <trkpt lat="56.3434467" lon="13.6367391">
        <ele>130.877</ele>
        <time>2014-06-17T12:50:04Z</time>
      </trkpt>
      <trkpt lat="56.3434528" lon="13.6367463">
        <ele>130.396</ele>
        <time>2014-06-17T12:50:05Z</time>
      </trkpt>
      <trkpt lat="56.3434819" lon="13.636768">
        <ele>128.473</ele>
        <time>2014-06-17T12:50:09Z</time>
      </trkpt>
      <trkpt lat="56.3434833" lon="13.6367654">
        <ele>127.993</ele>
        <time>2014-06-17T12:50:10Z</time>
      </trkpt>
      <trkpt lat="56.3435354" lon="13.636685">
        <ele>126.07</ele>
        <time>2014-06-17T12:50:14Z</time>
      </trkpt>
      <trkpt lat="56.3435426" lon="13.6366881">
        <ele>124.147</ele>
        <time>2014-06-17T12:50:22Z</time>
      </trkpt>
      <trkpt lat="56.3435509" lon="13.6367131">
        <ele>123.186</ele>
        <time>2014-06-17T12:50:30Z</time>
      </trkpt>
      <trkpt lat="56.3435529" lon="13.6367146">
        <ele>123.186</ele>
        <time>2014-06-17T12:50:31Z</time>
      </trkpt>
      <trkpt lat="56.3435925" lon="13.6366822">
        <ele>122.705</ele>
        <time>2014-06-17T12:50:35Z</time>
      </trkpt>
      <trkpt lat="56.343617" lon="13.6366658">
        <ele>122.225</ele>
        <time>2014-06-17T12:50:44Z</time>
      </trkpt>
      <trkpt lat="56.3436384" lon="13.6366739">
        <ele>121.264</ele>
        <time>2014-06-17T12:50:48Z</time>
      </trkpt>
      <trkpt lat="56.3436127" lon="13.6367047">
        <ele>121.744</ele>
        <time>2014-06-17T12:51:11Z</time>
      </trkpt>
      <trkpt lat="56.3435844" lon="13.6366986">
        <ele>121.264</ele>
        <time>2014-06-17T12:51:16Z</time>
      </trkpt>
      <trkpt lat="56.3436104" lon="13.6366705">
        <ele>119.821</ele>
        <time>2014-06-17T12:51:25Z</time>
      </trkpt>
      <trkpt lat="56.3435938" lon="13.6366853">
        <ele>119.821</ele>
        <time>2014-06-17T12:51:28Z</time>
      </trkpt>
      <trkpt lat="56.3435917" lon="13.6366905">
        <ele>119.821</ele>
        <time>2014-06-17T12:51:32Z</time>
      </trkpt>
      <trkpt lat="56.3435927" lon="13.6367116">
        <ele>119.821</ele>
        <time>2014-06-17T12:51:36Z</time>
      </trkpt>
      <trkpt lat="56.3436093" lon="13.63672">
        <ele>120.302</ele>
        <time>2014-06-17T12:51:40Z</time>
      </trkpt>
      <trkpt lat="56.343615" lon="13.6366821">
        <ele>120.783</ele>
        <time>2014-06-17T12:51:45Z</time>
      </trkpt>
      <trkpt lat="56.3435985" lon="13.6366837">
        <ele>120.302</ele>
        <time>2014-06-17T12:51:49Z</time>
      </trkpt>
      <trkpt lat="56.3436006" lon="13.6366782">
        <ele>120.302</ele>
        <time>2014-06-17T12:51:50Z</time>
      </trkpt>
      <trkpt lat="56.3436321" lon="13.6366671">
        <ele>119.821</ele>
        <time>2014-06-17T12:51:55Z</time>
      </trkpt>
      <trkpt lat="56.3436122" lon="13.6366708">
        <ele>119.821</ele>
        <time>2014-06-17T12:52:00Z</time>
      </trkpt>
      <trkpt lat="56.3435908" lon="13.6366769">
        <ele>119.821</ele>
        <time>2014-06-17T12:52:05Z</time>
      </trkpt>
      <trkpt lat="56.3436032" lon="13.636695">
        <ele>119.821</ele>
        <time>2014-06-17T12:52:18Z</time>
      </trkpt>
      <trkpt lat="56.3436325" lon="13.6366754">
        <ele>119.341</ele>
        <time>2014-06-17T12:52:22Z</time>
      </trkpt>
      <trkpt lat="56.343613" lon="13.6367002">
        <ele>118.86</ele>
        <time>2014-06-17T12:52:27Z</time>
      </trkpt>
      <trkpt lat="56.3436172" lon="13.6366804">
        <ele>119.341</ele>
        <time>2014-06-17T12:52:32Z</time>
      </trkpt>
      <trkpt lat="56.3436201" lon="13.6366774">
        <ele>118.86</ele>
        <time>2014-06-17T12:52:33Z</time>
      </trkpt>
      <trkpt lat="56.3436508" lon="13.6366436">
        <ele>119.821</ele>
        <time>2014-06-17T12:52:38Z</time>
      </trkpt>
      <trkpt lat="56.3436329" lon="13.6366578">
        <ele>119.821</ele>
        <time>2014-06-17T12:52:42Z</time>
      </trkpt>
      <trkpt lat="56.3436181" lon="13.6366684">
        <ele>119.821</ele>
        <time>2014-06-17T12:52:49Z</time>
      </trkpt>
      <trkpt lat="56.3436134" lon="13.6366633">
        <ele>119.821</ele>
        <time>2014-06-17T12:52:51Z</time>
      </trkpt>
      <trkpt lat="56.3436022" lon="13.6366783">
        <ele>119.821</ele>
        <time>2014-06-17T12:52:55Z</time>
      </trkpt>
      <trkpt lat="56.3436029" lon="13.6366841">
        <ele>120.302</ele>
        <time>2014-06-17T12:52:59Z</time>
      </trkpt>
      <trkpt lat="56.343631" lon="13.6366464">
        <ele>119.821</ele>
        <time>2014-06-17T12:53:06Z</time>
      </trkpt>
      <trkpt lat="56.3436363" lon="13.6366328">
        <ele>119.341</ele>
        <time>2014-06-17T12:53:13Z</time>
      </trkpt>
      <trkpt lat="56.3436438" lon="13.6366582">
        <ele>119.821</ele>
        <time>2014-06-17T12:53:18Z</time>
      </trkpt>
      <trkpt lat="56.3436483" lon="13.636663">
        <ele>119.821</ele>
        <time>2014-06-17T12:53:24Z</time>
      </trkpt>
      <trkpt lat="56.3436362" lon="13.636635">
        <ele>120.783</ele>
        <time>2014-06-17T12:53:28Z</time>
      </trkpt>
      <trkpt lat="56.3436394" lon="13.6366266">
        <ele>121.264</ele>
        <time>2014-06-17T12:53:32Z</time>
      </trkpt>
      <trkpt lat="56.3436228" lon="13.636638">
        <ele>120.783</ele>
        <time>2014-06-17T12:53:37Z</time>
      </trkpt>
      <trkpt lat="56.3436004" lon="13.6366383">
        <ele>120.302</ele>
        <time>2014-06-17T12:53:41Z</time>
      </trkpt>
      <trkpt lat="56.3435989" lon="13.6366815">
        <ele>120.302</ele>
        <time>2014-06-17T12:53:46Z</time>
      </trkpt>
      <trkpt lat="56.3436" lon="13.6366677">
        <ele>119.821</ele>
        <time>2014-06-17T12:53:47Z</time>
      </trkpt>
      <trkpt lat="56.3436047" lon="13.6366327">
        <ele>119.341</ele>
        <time>2014-06-17T12:53:52Z</time>
      </trkpt>
      <trkpt lat="56.3436245" lon="13.636657">
        <ele>119.821</ele>
        <time>2014-06-17T12:54:04Z</time>
      </trkpt>
      <trkpt lat="56.3436186" lon="13.6366296">
        <ele>119.821</ele>
        <time>2014-06-17T12:54:07Z</time>
      </trkpt>
      <trkpt lat="56.3436257" lon="13.6366171">
        <ele>119.821</ele>
        <time>2014-06-17T12:54:11Z</time>
      </trkpt>
      <trkpt lat="56.3436154" lon="13.6366085">
        <ele>120.302</ele>
        <time>2014-06-17T12:54:15Z</time>
      </trkpt>
      <trkpt lat="56.3436197" lon="13.6366075">
        <ele>120.302</ele>
        <time>2014-06-17T12:54:19Z</time>
      </trkpt>
      <trkpt lat="56.343614" lon="13.6366277">
        <ele>120.302</ele>
        <time>2014-06-17T12:54:23Z</time>
      </trkpt>
      <trkpt lat="56.3436423" lon="13.6365993">
        <ele>119.341</ele>
        <time>2014-06-17T12:54:28Z</time>
      </trkpt>
      <trkpt lat="56.3436191" lon="13.6366277">
        <ele>118.86</ele>
        <time>2014-06-17T12:54:36Z</time>
      </trkpt>
      <trkpt lat="56.3436122" lon="13.6365946">
        <ele>118.86</ele>
        <time>2014-06-17T12:54:40Z</time>
      </trkpt>
      <trkpt lat="56.3436268" lon="13.6366127">
        <ele>119.341</ele>
        <time>2014-06-17T12:54:47Z</time>
      </trkpt>
      <trkpt lat="56.3436196" lon="13.636624">
        <ele>120.302</ele>
        <time>2014-06-17T12:54:51Z</time>
      </trkpt>
      <trkpt lat="56.3436553" lon="13.636608">
        <ele>120.302</ele>
        <time>2014-06-17T12:54:56Z</time>
      </trkpt>
      <trkpt lat="56.3436513" lon="13.6366223">
        <ele>119.821</ele>
        <time>2014-06-17T12:55:01Z</time>
      </trkpt>
      <trkpt lat="56.3436441" lon="13.6366311">
        <ele>120.302</ele>
        <time>2014-06-17T12:55:05Z</time>
      </trkpt>
      <trkpt lat="56.3435984" lon="13.6366679">
        <ele>120.783</ele>
        <time>2014-06-17T12:55:09Z</time>
      </trkpt>
      <trkpt lat="56.3436273" lon="13.6366228">
        <ele>120.302</ele>
        <time>2014-06-17T12:55:14Z</time>
      </trkpt>
      <trkpt lat="56.3436161" lon="13.6366425">
        <ele>120.302</ele>
        <time>2014-06-17T12:55:18Z</time>
      </trkpt>
      <trkpt lat="56.3435838" lon="13.6366863">
        <ele>120.302</ele>
        <time>2014-06-17T12:55:22Z</time>
      </trkpt>
      <trkpt lat="56.3436299" lon="13.6366442">
        <ele>119.821</ele>
        <time>2014-06-17T12:55:26Z</time>
      </trkpt>
      <trkpt lat="56.3436309" lon="13.6366499">
        <ele>120.302</ele>
        <time>2014-06-17T12:55:31Z</time>
      </trkpt>
      <trkpt lat="56.3436191" lon="13.6366742">
        <ele>120.783</ele>
        <time>2014-06-17T12:55:37Z</time>
      </trkpt>
      <trkpt lat="56.3436006" lon="13.6367007">
        <ele>121.264</ele>
        <time>2014-06-17T12:55:42Z</time>
      </trkpt>
      <trkpt lat="56.3435843" lon="13.6367234">
        <ele>120.783</ele>
        <time>2014-06-17T12:55:46Z</time>
      </trkpt>
      <trkpt lat="56.3435834" lon="13.6366788">
        <ele>120.783</ele>
        <time>2014-06-17T12:55:51Z</time>
      </trkpt>
      <trkpt lat="56.3435782" lon="13.6367187">
        <ele>119.821</ele>
        <time>2014-06-17T12:55:57Z</time>
      </trkpt>
      <trkpt lat="56.3435767" lon="13.6367053">
        <ele>120.302</ele>
        <time>2014-06-17T12:56:05Z</time>
      </trkpt>
      <trkpt lat="56.3436039" lon="13.6366893">
        <ele>121.264</ele>
        <time>2014-06-17T12:56:08Z</time>
      </trkpt>
      <trkpt lat="56.3435824" lon="13.6366902">
        <ele>120.783</ele>
        <time>2014-06-17T12:56:15Z</time>
      </trkpt>
      <trkpt lat="56.3435597" lon="13.6367026">
        <ele>121.264</ele>
        <time>2014-06-17T12:56:20Z</time>
      </trkpt>
      <trkpt lat="56.3435669" lon="13.636687">
        <ele>120.783</ele>
        <time>2014-06-17T12:56:24Z</time>
      </trkpt>
      <trkpt lat="56.3435845" lon="13.6366686">
        <ele>120.783</ele>
        <time>2014-06-17T12:56:26Z</time>
      </trkpt>
      <trkpt lat="56.3435838" lon="13.6366903">
        <ele>122.225</ele>
        <time>2014-06-17T12:56:34Z</time>
      </trkpt>
      <trkpt lat="56.3435948" lon="13.6366744">
        <ele>122.705</ele>
        <time>2014-06-17T12:56:42Z</time>
      </trkpt>
      <trkpt lat="56.3436092" lon="13.6366505">
        <ele>123.186</ele>
        <time>2014-06-17T12:56:47Z</time>
      </trkpt>
      <trkpt lat="56.3435917" lon="13.6366702">
        <ele>124.147</ele>
        <time>2014-06-17T12:56:52Z</time>
      </trkpt>
      <trkpt lat="56.3435941" lon="13.6366666">
        <ele>124.147</ele>
        <time>2014-06-17T12:56:53Z</time>
      </trkpt>
      <trkpt lat="56.3436238" lon="13.6366466">
        <ele>123.186</ele>
        <time>2014-06-17T12:56:59Z</time>
      </trkpt>
      <trkpt lat="56.3435917" lon="13.636642">
        <ele>123.667</ele>
        <time>2014-06-17T12:57:03Z</time>
      </trkpt>
      <trkpt lat="56.3436139" lon="13.6366234">
        <ele>122.705</ele>
        <time>2014-06-17T12:57:06Z</time>
      </trkpt>
      <trkpt lat="56.3436022" lon="13.6366435">
        <ele>122.705</ele>
        <time>2014-06-17T12:57:12Z</time>
      </trkpt>
      <trkpt lat="56.3435746" lon="13.6366642">
        <ele>123.186</ele>
        <time>2014-06-17T12:57:20Z</time>
      </trkpt>
      <trkpt lat="56.3435822" lon="13.6366763">
        <ele>124.147</ele>
        <time>2014-06-17T12:57:26Z</time>
      </trkpt>
      <trkpt lat="56.3435561" lon="13.6366606">
        <ele>124.147</ele>
        <time>2014-06-17T12:57:32Z</time>
      </trkpt>
      <trkpt lat="56.3435881" lon="13.6366689">
        <ele>122.705</ele>
        <time>2014-06-17T12:57:37Z</time>
      </trkpt>
      <trkpt lat="56.3436011" lon="13.6366645">
        <ele>122.705</ele>
        <time>2014-06-17T12:57:38Z</time>
      </trkpt>
      <trkpt lat="56.343602" lon="13.6366655">
        <ele>123.186</ele>
        <time>2014-06-17T12:57:44Z</time>
      </trkpt>
      <trkpt lat="56.343587" lon="13.6366675">
        <ele>123.186</ele>
        <time>2014-06-17T12:57:48Z</time>
      </trkpt>
      <trkpt lat="56.3436027" lon="13.636665">
        <ele>124.628</ele>
        <time>2014-06-17T12:57:58Z</time>
      </trkpt>
      <trkpt lat="56.3436288" lon="13.636665">
        <ele>123.667</ele>
        <time>2014-06-17T12:58:05Z</time>
      </trkpt>
      <trkpt lat="56.3436083" lon="13.6366514">
        <ele>124.147</ele>
        <time>2014-06-17T12:58:13Z</time>
      </trkpt>
      <trkpt lat="56.3436228" lon="13.6366418">
        <ele>124.147</ele>
        <time>2014-06-17T12:58:17Z</time>
      </trkpt>
      <trkpt lat="56.3436311" lon="13.6366677">
        <ele>125.589</ele>
        <time>2014-06-17T12:58:21Z</time>
      </trkpt>
      <trkpt lat="56.3436741" lon="13.6366571">
        <ele>126.07</ele>
        <time>2014-06-17T12:58:25Z</time>
      </trkpt>
      <trkpt lat="56.3436675" lon="13.6366245">
        <ele>124.628</ele>
        <time>2014-06-17T12:58:30Z</time>
      </trkpt>
      <trkpt lat="56.3436557" lon="13.6366247">
        <ele>124.147</ele>
        <time>2014-06-17T12:58:34Z</time>
      </trkpt>
      <trkpt lat="56.3436414" lon="13.6366355">
        <ele>123.667</ele>
        <time>2014-06-17T12:58:38Z</time>
      </trkpt>
      <trkpt lat="56.3436198" lon="13.6366085">
        <ele>123.667</ele>
        <time>2014-06-17T12:58:42Z</time>
      </trkpt>
      <trkpt lat="56.343626" lon="13.6365956">
        <ele>123.667</ele>
        <time>2014-06-17T12:58:44Z</time>
      </trkpt>
      <trkpt lat="56.3436434" lon="13.6365861">
        <ele>123.667</ele>
        <time>2014-06-17T12:58:47Z</time>
      </trkpt>
      <trkpt lat="56.3436212" lon="13.6366099">
        <ele>123.667</ele>
        <time>2014-06-17T12:58:52Z</time>
      </trkpt>
      <trkpt lat="56.3436538" lon="13.6365827">
        <ele>123.186</ele>
        <time>2014-06-17T12:58:55Z</time>
      </trkpt>
      <trkpt lat="56.3436363" lon="13.6366178">
        <ele>122.225</ele>
        <time>2014-06-17T12:59:05Z</time>
      </trkpt>
      <trkpt lat="56.3436186" lon="13.6366021">
        <ele>121.744</ele>
        <time>2014-06-17T12:59:10Z</time>
      </trkpt>
      <trkpt lat="56.3436232" lon="13.6365928">
        <ele>120.783</ele>
        <time>2014-06-17T12:59:17Z</time>
      </trkpt>
      <trkpt lat="56.3436128" lon="13.6366">
        <ele>120.783</ele>
        <time>2014-06-17T12:59:21Z</time>
      </trkpt>
      <trkpt lat="56.3436208" lon="13.6365905">
        <ele>121.264</ele>
        <time>2014-06-17T12:59:26Z</time>
      </trkpt>
      <trkpt lat="56.343631" lon="13.6365712">
        <ele>123.186</ele>
        <time>2014-06-17T12:59:37Z</time>
      </trkpt>
      <trkpt lat="56.3436284" lon="13.6366138">
        <ele>123.186</ele>
        <time>2014-06-17T12:59:41Z</time>
      </trkpt>
      <trkpt lat="56.3436747" lon="13.6365909">
        <ele>122.225</ele>
        <time>2014-06-17T12:59:46Z</time>
      </trkpt>
      <trkpt lat="56.3436514" lon="13.636605">
        <ele>122.225</ele>
        <time>2014-06-17T12:59:56Z</time>
      </trkpt>
      <trkpt lat="56.3436237" lon="13.6366059">
        <ele>122.705</ele>
        <time>2014-06-17T13:00:00Z</time>
      </trkpt>
      <trkpt lat="56.343597" lon="13.6366379">
        <ele>123.186</ele>
        <time>2014-06-17T13:00:04Z</time>
      </trkpt>
      <trkpt lat="56.3435974" lon="13.6366361">
        <ele>123.186</ele>
        <time>2014-06-17T13:00:05Z</time>
      </trkpt>
      <trkpt lat="56.3436184" lon="13.6366183">
        <ele>122.705</ele>
        <time>2014-06-17T13:00:09Z</time>
      </trkpt>
      <trkpt lat="56.3436151" lon="13.6366099">
        <ele>121.744</ele>
        <time>2014-06-17T13:00:14Z</time>
      </trkpt>
      <trkpt lat="56.343607" lon="13.6366249">
        <ele>122.225</ele>
        <time>2014-06-17T13:00:21Z</time>
      </trkpt>
      <trkpt lat="56.3436086" lon="13.6366213">
        <ele>122.225</ele>
        <time>2014-06-17T13:00:22Z</time>
      </trkpt>
      <trkpt lat="56.343628" lon="13.6366116">
        <ele>122.225</ele>
        <time>2014-06-17T13:00:28Z</time>
      </trkpt>
      <trkpt lat="56.3436243" lon="13.6365917">
        <ele>121.744</ele>
        <time>2014-06-17T13:00:33Z</time>
      </trkpt>
      <trkpt lat="56.3436215" lon="13.6366006">
        <ele>121.744</ele>
        <time>2014-06-17T13:00:37Z</time>
      </trkpt>
      <trkpt lat="56.3436145" lon="13.6366078">
        <ele>122.225</ele>
        <time>2014-06-17T13:00:38Z</time>
      </trkpt>
      <trkpt lat="56.3435948" lon="13.6366379">
        <ele>122.225</ele>
        <time>2014-06-17T13:00:44Z</time>
      </trkpt>
      <trkpt lat="56.3436045" lon="13.6366176">
        <ele>122.225</ele>
        <time>2014-06-17T13:00:46Z</time>
      </trkpt>
      <trkpt lat="56.3436188" lon="13.6366318">
        <ele>122.225</ele>
        <time>2014-06-17T13:00:52Z</time>
      </trkpt>
      <trkpt lat="56.3436145" lon="13.6366329">
        <ele>122.705</ele>
        <time>2014-06-17T13:00:57Z</time>
      </trkpt>
      <trkpt lat="56.3436124" lon="13.6366303">
        <ele>122.705</ele>
        <time>2014-06-17T13:00:59Z</time>
      </trkpt>
      <trkpt lat="56.3435736" lon="13.6366691">
        <ele>122.705</ele>
        <time>2014-06-17T13:01:03Z</time>
      </trkpt>
      <trkpt lat="56.3435569" lon="13.6366645">
        <ele>123.186</ele>
        <time>2014-06-17T13:01:09Z</time>
      </trkpt>
      <trkpt lat="56.3435701" lon="13.6366658">
        <ele>123.667</ele>
        <time>2014-06-17T13:01:13Z</time>
      </trkpt>
      <trkpt lat="56.3435669" lon="13.6366586">
        <ele>124.147</ele>
        <time>2014-06-17T13:01:17Z</time>
      </trkpt>
      <trkpt lat="56.3435555" lon="13.6366946">
        <ele>124.147</ele>
        <time>2014-06-17T13:01:21Z</time>
      </trkpt>
      <trkpt lat="56.3435616" lon="13.6366744">
        <ele>124.147</ele>
        <time>2014-06-17T13:01:27Z</time>
      </trkpt>
      <trkpt lat="56.3435666" lon="13.6366708">
        <ele>124.628</ele>
        <time>2014-06-17T13:01:30Z</time>
      </trkpt>
      <trkpt lat="56.3435881" lon="13.6366473">
        <ele>124.147</ele>
        <time>2014-06-17T13:01:33Z</time>
      </trkpt>
      <trkpt lat="56.3435835" lon="13.6366373">
        <ele>122.705</ele>
        <time>2014-06-17T13:01:37Z</time>
      </trkpt>
      <trkpt lat="56.3435772" lon="13.6366492">
        <ele>121.744</ele>
        <time>2014-06-17T13:01:44Z</time>
      </trkpt>
      <trkpt lat="56.3435889" lon="13.6366285">
        <ele>121.264</ele>
        <time>2014-06-17T13:01:47Z</time>
      </trkpt>
      <trkpt lat="56.3436091" lon="13.636638">
        <ele>121.264</ele>
        <time>2014-06-17T13:01:52Z</time>
      </trkpt>
      <trkpt lat="56.343628" lon="13.6366687">
        <ele>120.783</ele>
        <time>2014-06-17T13:01:59Z</time>
      </trkpt>
      <trkpt lat="56.3436215" lon="13.6366492">
        <ele>120.783</ele>
        <time>2014-06-17T13:02:04Z</time>
      </trkpt>
      <trkpt lat="56.3436067" lon="13.63668">
        <ele>121.744</ele>
        <time>2014-06-17T13:02:18Z</time>
      </trkpt>
      <trkpt lat="56.3435938" lon="13.6366658">
        <ele>121.744</ele>
        <time>2014-06-17T13:02:26Z</time>
      </trkpt>
      <trkpt lat="56.3436166" lon="13.6366962">
        <ele>124.147</ele>
        <time>2014-06-17T13:02:41Z</time>
      </trkpt>
      <trkpt lat="56.3436191" lon="13.6366944">
        <ele>122.705</ele>
        <time>2014-06-17T13:02:47Z</time>
      </trkpt>
      <trkpt lat="56.3436419" lon="13.6366738">
        <ele>121.264</ele>
        <time>2014-06-17T13:02:57Z</time>
      </trkpt>
      <trkpt lat="56.3436455" lon="13.636692">
        <ele>120.783</ele>
        <time>2014-06-17T13:03:01Z</time>
      </trkpt>
      <trkpt lat="56.3436276" lon="13.6366426">
        <ele>120.783</ele>
        <time>2014-06-17T13:03:08Z</time>
      </trkpt>
      <trkpt lat="56.3436228" lon="13.6366249">
        <ele>120.783</ele>
        <time>2014-06-17T13:03:14Z</time>
      </trkpt>
      <trkpt lat="56.3436677" lon="13.6366404">
        <ele>122.225</ele>
        <time>2014-06-17T13:03:26Z</time>
      </trkpt>
      <trkpt lat="56.3436736" lon="13.6366585">
        <ele>122.705</ele>
        <time>2014-06-17T13:03:31Z</time>
      </trkpt>
      <trkpt lat="56.3436666" lon="13.6366733">
        <ele>123.186</ele>
        <time>2014-06-17T13:03:34Z</time>
      </trkpt>
      <trkpt lat="56.3436301" lon="13.636684">
        <ele>122.705</ele>
        <time>2014-06-17T13:03:40Z</time>
      </trkpt>
      <trkpt lat="56.343648" lon="13.636665">
        <ele>122.705</ele>
        <time>2014-06-17T13:03:44Z</time>
      </trkpt>
      <trkpt lat="56.3436356" lon="13.6366601">
        <ele>123.667</ele>
        <time>2014-06-17T13:03:50Z</time>
      </trkpt>
      <trkpt lat="56.343628" lon="13.6366581">
        <ele>123.667</ele>
        <time>2014-06-17T13:03:55Z</time>
      </trkpt>
      <trkpt lat="56.3436348" lon="13.6366939">
        <ele>124.147</ele>
        <time>2014-06-17T13:03:59Z</time>
      </trkpt>
      <trkpt lat="56.3436162" lon="13.6367016">
        <ele>124.147</ele>
        <time>2014-06-17T13:04:09Z</time>
      </trkpt>
      <trkpt lat="56.3436383" lon="13.6366705">
        <ele>120.783</ele>
        <time>2014-06-17T13:04:21Z</time>
      </trkpt>
      <trkpt lat="56.343646" lon="13.6366655">
        <ele>120.302</ele>
        <time>2014-06-17T13:04:25Z</time>
      </trkpt>
      <trkpt lat="56.3436461" lon="13.6366349">
        <ele>119.821</ele>
        <time>2014-06-17T13:04:29Z</time>
      </trkpt>
      <trkpt lat="56.3436415" lon="13.6366216">
        <ele>118.86</ele>
        <time>2014-06-17T13:04:36Z</time>
      </trkpt>
      <trkpt lat="56.3436134" lon="13.6366292">
        <ele>119.341</ele>
        <time>2014-06-17T13:04:42Z</time>
      </trkpt>
      <trkpt lat="56.3436125" lon="13.6366318">
        <ele>120.302</ele>
        <time>2014-06-17T13:04:49Z</time>
      </trkpt>
      <trkpt lat="56.3436289" lon="13.6366354">
        <ele>119.341</ele>
        <time>2014-06-17T13:04:55Z</time>
      </trkpt>
      <trkpt lat="56.3436456" lon="13.6366603">
        <ele>119.821</ele>
        <time>2014-06-17T13:05:03Z</time>
      </trkpt>
      <trkpt lat="56.3436654" lon="13.6366705">
        <ele>120.302</ele>
        <time>2014-06-17T13:05:05Z</time>
      </trkpt>
      <trkpt lat="56.3436896" lon="13.6366347">
        <ele>120.302</ele>
        <time>2014-06-17T13:05:11Z</time>
      </trkpt>
      <trkpt lat="56.3437517" lon="13.6366743">
        <ele>119.821</ele>
        <time>2014-06-17T13:05:15Z</time>
      </trkpt>
      <trkpt lat="56.3438642" lon="13.6369704">
        <ele>120.302</ele>
        <time>2014-06-17T13:05:21Z</time>
      </trkpt>
      <trkpt lat="56.3439327" lon="13.6373095">
        <ele>120.783</ele>
        <time>2014-06-17T13:05:27Z</time>
      </trkpt>
      <trkpt lat="56.3439625" lon="13.6376682">
        <ele>120.783</ele>
        <time>2014-06-17T13:05:33Z</time>
      </trkpt>
      <trkpt lat="56.3439594" lon="13.6377905">
        <ele>120.783</ele>
        <time>2014-06-17T13:05:35Z</time>
      </trkpt>
      <trkpt lat="56.344062" lon="13.6379816">
        <ele>121.744</ele>
        <time>2014-06-17T13:05:40Z</time>
      </trkpt>
      <trkpt lat="56.344157" lon="13.6379779">
        <ele>121.744</ele>
        <time>2014-06-17T13:05:43Z</time>
      </trkpt>
      <trkpt lat="56.3443843" lon="13.6379334">
        <ele>122.225</ele>
        <time>2014-06-17T13:05:50Z</time>
      </trkpt>
      <trkpt lat="56.3446122" lon="13.6378833">
        <ele>122.225</ele>
        <time>2014-06-17T13:05:57Z</time>
      </trkpt>
      <trkpt lat="56.3448313" lon="13.6378378">
        <ele>123.667</ele>
        <time>2014-06-17T13:06:04Z</time>
      </trkpt>
      <trkpt lat="56.345021" lon="13.6377922">
        <ele>124.628</ele>
        <time>2014-06-17T13:06:10Z</time>
      </trkpt>
      <trkpt lat="56.3451763" lon="13.6377967">
        <ele>124.147</ele>
        <time>2014-06-17T13:06:15Z</time>
      </trkpt>
      <trkpt lat="56.345361" lon="13.637889">
        <ele>125.589</ele>
        <time>2014-06-17T13:06:21Z</time>
      </trkpt>
      <trkpt lat="56.3456003" lon="13.6380367">
        <ele>127.031</ele>
        <time>2014-06-17T13:06:29Z</time>
      </trkpt>
      <trkpt lat="56.3456487" lon="13.6381031">
        <ele>127.512</ele>
        <time>2014-06-17T13:06:31Z</time>
      </trkpt>
      <trkpt lat="56.3456333" lon="13.6383491">
        <ele>126.07</ele>
        <time>2014-06-17T13:06:36Z</time>
      </trkpt>
      <trkpt lat="56.3456046" lon="13.6384888">
        <ele>125.109</ele>
        <time>2014-06-17T13:06:39Z</time>
      </trkpt>
      <trkpt lat="56.3455685" lon="13.6387228">
        <ele>123.186</ele>
        <time>2014-06-17T13:06:44Z</time>
      </trkpt>
      <trkpt lat="56.3455741" lon="13.6389546">
        <ele>122.225</ele>
        <time>2014-06-17T13:06:49Z</time>
      </trkpt>
      <trkpt lat="56.3455913" lon="13.6391784">
        <ele>122.225</ele>
        <time>2014-06-17T13:06:54Z</time>
      </trkpt>
      <trkpt lat="56.3456175" lon="13.6395094">
        <ele>123.186</ele>
        <time>2014-06-17T13:07:00Z</time>
      </trkpt>
      <trkpt lat="56.3456249" lon="13.6398798">
        <ele>123.667</ele>
        <time>2014-06-17T13:07:06Z</time>
      </trkpt>
      <trkpt lat="56.3456399" lon="13.6401714">
        <ele>124.628</ele>
        <time>2014-06-17T13:07:11Z</time>
      </trkpt>
      <trkpt lat="56.3456491" lon="13.6405055">
        <ele>125.109</ele>
        <time>2014-06-17T13:07:17Z</time>
      </trkpt>
      <trkpt lat="56.3456582" lon="13.640852">
        <ele>126.07</ele>
        <time>2014-06-17T13:07:23Z</time>
      </trkpt>
      <trkpt lat="56.3456773" lon="13.6412593">
        <ele>127.993</ele>
        <time>2014-06-17T13:07:30Z</time>
      </trkpt>
      <trkpt lat="56.3456865" lon="13.6415326">
        <ele>128.473</ele>
        <time>2014-06-17T13:07:35Z</time>
      </trkpt>
      <trkpt lat="56.3457648" lon="13.6418212">
        <ele>128.473</ele>
        <time>2014-06-17T13:07:41Z</time>
      </trkpt>
      <trkpt lat="56.3458594" lon="13.642098">
        <ele>128.954</ele>
        <time>2014-06-17T13:07:47Z</time>
      </trkpt>
      <trkpt lat="56.345917" lon="13.6423033">
        <ele>129.435</ele>
        <time>2014-06-17T13:07:51Z</time>
      </trkpt>
      <trkpt lat="56.3459689" lon="13.6424512">
        <ele>130.396</ele>
        <time>2014-06-17T13:07:54Z</time>
      </trkpt>
      <trkpt lat="56.3460813" lon="13.6427467">
        <ele>130.877</ele>
        <time>2014-06-17T13:08:01Z</time>
      </trkpt>
      <trkpt lat="56.3461741" lon="13.6429983">
        <ele>131.838</ele>
        <time>2014-06-17T13:08:07Z</time>
      </trkpt>
      <trkpt lat="56.3462735" lon="13.6433238">
        <ele>132.319</ele>
        <time>2014-06-17T13:08:14Z</time>
      </trkpt>
      <trkpt lat="56.346334" lon="13.643498">
        <ele>132.799</ele>
        <time>2014-06-17T13:08:18Z</time>
      </trkpt>
      <trkpt lat="56.3464573" lon="13.6437403">
        <ele>133.28</ele>
        <time>2014-06-17T13:08:24Z</time>
      </trkpt>
      <trkpt lat="56.3465607" lon="13.6438994">
        <ele>133.28</ele>
        <time>2014-06-17T13:08:29Z</time>
      </trkpt>
      <trkpt lat="56.3466903" lon="13.6440254">
        <ele>132.319</ele>
        <time>2014-06-17T13:08:34Z</time>
      </trkpt>
      <trkpt lat="56.3468282" lon="13.6441783">
        <ele>131.838</ele>
        <time>2014-06-17T13:08:40Z</time>
      </trkpt>
      <trkpt lat="56.3469843" lon="13.6443266">
        <ele>132.799</ele>
        <time>2014-06-17T13:08:46Z</time>
      </trkpt>
      <trkpt lat="56.3471083" lon="13.6444314">
        <ele>132.799</ele>
        <time>2014-06-17T13:08:50Z</time>
      </trkpt>
      <trkpt lat="56.3473255" lon="13.6446097">
        <ele>133.28</ele>
        <time>2014-06-17T13:08:56Z</time>
      </trkpt>
      <trkpt lat="56.3475663" lon="13.6447063">
        <ele>131.357</ele>
        <time>2014-06-17T13:09:03Z</time>
      </trkpt>
      <trkpt lat="56.3477623" lon="13.6448034">
        <ele>130.877</ele>
        <time>2014-06-17T13:09:09Z</time>
      </trkpt>
      <trkpt lat="56.3479293" lon="13.644907">
        <ele>131.838</ele>
        <time>2014-06-17T13:09:14Z</time>
      </trkpt>
      <trkpt lat="56.3480725" lon="13.6450122">
        <ele>131.838</ele>
        <time>2014-06-17T13:09:19Z</time>
      </trkpt>
      <trkpt lat="56.3482854" lon="13.6451561">
        <ele>132.319</ele>
        <time>2014-06-17T13:09:25Z</time>
      </trkpt>
      <trkpt lat="56.3484636" lon="13.6452582">
        <ele>133.76</ele>
        <time>2014-06-17T13:09:30Z</time>
      </trkpt>
      <trkpt lat="56.3486589" lon="13.6453782">
        <ele>134.241</ele>
        <time>2014-06-17T13:09:36Z</time>
      </trkpt>
      <trkpt lat="56.3487836" lon="13.6454752">
        <ele>134.722</ele>
        <time>2014-06-17T13:09:40Z</time>
      </trkpt>
      <trkpt lat="56.3489705" lon="13.6455888">
        <ele>135.203</ele>
        <time>2014-06-17T13:09:46Z</time>
      </trkpt>
      <trkpt lat="56.3491308" lon="13.645694">
        <ele>135.203</ele>
        <time>2014-06-17T13:09:51Z</time>
      </trkpt>
      <trkpt lat="56.3492717" lon="13.6458167">
        <ele>135.203</ele>
        <time>2014-06-17T13:09:56Z</time>
      </trkpt>
      <trkpt lat="56.3492774" lon="13.6460507">
        <ele>134.241</ele>
        <time>2014-06-17T13:10:00Z</time>
      </trkpt>
      <trkpt lat="56.349248" lon="13.6460952">
        <ele>133.76</ele>
        <time>2014-06-17T13:10:01Z</time>
      </trkpt>
      <trkpt lat="56.3490117" lon="13.6463314">
        <ele>131.357</ele>
        <time>2014-06-17T13:10:08Z</time>
      </trkpt>
    </trkseg>
  </trk>
</gpx>